CheckWX is a tool to help pilots better visualize weather data.  It is not intended as a substitute for an official pre-flight weather briefing.

18:15:49 UTC

EPOK TAF
Oksywie Military Air Base Airport
Gdynia, Poland
TAF EPOK 261100Z 2612/2621 34010KT 9999 BKN006 OVC010 PROB30 TEMPO 2612/2618 SCT015 TEMPO 2618/2621 5000 BR BKN004

May-26@
12:00 UTC

May-26 @ 12:00 UTC

May-26@
21:00 UTC

May-26 @ 21:00 UTC

TAF EPOK 261100Z 2612/2621 34010KT 9999 BKN006 OVC010
Wind
  • 340° at 10 KTS
Cloud Levels
  • Broken at 600' AGL
  • Overcast at 1,000' AGL

May-26@
12:00 UTC

May-26 @ 12:00 UTC

May-26@
18:00 UTC

May-26 @ 18:00 UTC

PROB30 TEMPO 2612/2618 SCT015

Expired

Cloud Levels
  • Scattered at 1,500' AGL

May-26@
18:00 UTC

May-26 @ 18:00 UTC

May-26@
21:00 UTC

May-26 @ 21:00 UTC

TEMPO 2618/2621 5000 BR BKN004

Temporary

Temporary Changes expected for less than half the time period

Conditions
Mist
Cloud Levels
  • Broken at 400' AGL